sensor_id;sensor_type;location;lat;lon;timestamp;P1;durP1;ratioP1;P2;durP2;ratioP2
2522;SDS011;1272;53.332;9.860;2022-11-14T00:00:07;41.23;;;25.90;;
2522;SDS011;1272;53.332;9.860;2022-11-14T00:02:34;42.90;;;25.90;;
2522;SDS011;1272;53.332;9.860;2022-11-14T00:05:01;38.20;;;25.07;;
2522;SDS011;1272;53.332;9.860;2022-11-14T00:07:31;41.30;;;25.73;;
2522;SDS011;1272;53.332;9.860;2022-11-14T00:09:57;43.47;;;24.70;;
2522;SDS011;1272;53.332;9.860;2022-11-14T00:12:23;40.30;;;25.60;;
2522;SDS011;1272;53.332;9.860;2022-11-14T00:14:49;42.80;;;24.07;;
2522;SDS011;1272;53.332;9.860;2022-11-14T00:17:16;36.63;;;24.50;;
2522;SDS011;1272;53.332;9.860;2022-11-14T00:19:42;38.27;;;25.90;;
2522;SDS011;1272;53.332;9.860;2022-11-14T00:22:07;46.60;;;27.00;;
2522;SDS011;1272;53.332;9.860;2022-11-14T00:24:33;38.40;;;23.47;;
2522;SDS011;1272;53.332;9.860;2022-11-14T00:26:59;43.33;;;27.90;;
2522;SDS011;1272;53.332;9.860;2022-11-14T00:29:25;38.10;;;25.10;;
2522;SDS011;1272;53.332;9.860;2022-11-14T00:31:50;38.60;;;24.27;;
2522;SDS011;1272;53.332;9.860;2022-11-14T00:34:17;41.93;;;25.33;;
2522;SDS011;1272;53.332;9.860;2022-11-14T00:36:42;40.53;;;25.50;;
2522;SDS011;1272;53.332;9.860;2022-11-14T00:39:12;43.57;;;26.40;;
2522;SDS011;1272;53.332;9.860;2022-11-14T00:41:41;41.20;;;24.97;;
2522;SDS011;1272;53.332;9.860;2022-11-14T00:44:07;43.63;;;25.00;;
2522;SDS011;1272;53.332;9.860;2022-11-14T00:46:33;42.67;;;24.53;;
2522;SDS011;1272;53.332;9.860;2022-11-14T00:48:59;38.83;;;24.07;;
2522;SDS011;1272;53.332;9.860;2022-11-14T00:51:25;39.53;;;26.00;;
2522;SDS011;1272;53.332;9.860;2022-11-14T00:53:51;40.77;;;24.73;;
2522;SDS011;1272;53.332;9.860;2022-11-14T00:56:16;45.40;;;25.23;;
2522;SDS011;1272;53.332;9.860;2022-11-14T00:58:48;37.37;;;23.97;;
2522;SDS011;1272;53.332;9.860;2022-11-14T01:01:14;43.13;;;24.60;;
2522;SDS011;1272;53.332;9.860;2022-11-14T01:03:40;43.20;;;25.83;;
2522;SDS011;1272;53.332;9.860;2022-11-14T01:06:06;41.87;;;26.70;;
2522;SDS011;1272;53.332;9.860;2022-11-14T01:08:35;41.73;;;22.87;;
2522;SDS011;1272;53.332;9.860;2022-11-14T01:11:00;37.33;;;24.20;;
2522;SDS011;1272;53.332;9.860;2022-11-14T01:13:34;40.63;;;24.87;;
2522;SDS011;1272;53.332;9.860;2022-11-14T01:16:00;43.50;;;24.40;;
2522;SDS011;1272;53.332;9.860;2022-11-14T01:18:26;43.00;;;25.13;;
2522;SDS011;1272;53.332;9.860;2022-11-14T01:20:52;41.80;;;23.43;;
2522;SDS011;1272;53.332;9.860;2022-11-14T01:23:18;37.87;;;25.73;;
2522;SDS011;1272;53.332;9.860;2022-11-14T01:25:43;39.60;;;24.90;;
2522;SDS011;1272;53.332;9.860;2022-11-14T01:28:10;45.63;;;25.93;;
2522;SDS011;1272;53.332;9.860;2022-11-14T01:30:37;40.83;;;26.10;;
2522;SDS011;1272;53.332;9.860;2022-11-14T01:33:03;43.90;;;25.40;;
2522;SDS011;1272;53.332;9.860;2022-11-14T01:35:30;45.73;;;25.90;;
2522;SDS011;1272;53.332;9.860;2022-11-14T01:37:56;42.83;;;25.90;;
2522;SDS011;1272;53.332;9.860;2022-11-14T01:40:22;47.13;;;28.30;;
2522;SDS011;1272;53.332;9.860;2022-11-14T01:50:47;44.70;;;25.20;;
2522;SDS011;1272;53.332;9.860;2022-11-14T01:53:20;42.63;;;23.80;;
2522;SDS011;1272;53.332;9.860;2022-11-14T01:55:46;46.73;;;26.23;;
2522;SDS011;1272;53.332;9.860;2022-11-14T01:58:12;42.63;;;25.37;;
2522;SDS011;1272;53.332;9.860;2022-11-14T02:00:39;46.20;;;27.47;;
2522;SDS011;1272;53.332;9.860;2022-11-14T02:03:06;47.93;;;26.70;;
2522;SDS011;1272;53.332;9.860;2022-11-14T02:05:31;44.03;;;25.83;;
2522;SDS011;1272;53.332;9.860;2022-11-14T02:07:58;45.00;;;25.47;;
2522;SDS011;1272;53.332;9.860;2022-11-14T02:10:24;39.43;;;26.43;;
2522;SDS011;1272;53.332;9.860;2022-11-14T02:12:50;42.57;;;27.30;;
2522;SDS011;1272;53.332;9.860;2022-11-14T02:15:16;48.60;;;29.43;;
2522;SDS011;1272;53.332;9.860;2022-11-14T02:17:42;46.40;;;26.90;;
2522;SDS011;1272;53.332;9.860;2022-11-14T02:22:34;41.03;;;25.30;;
2522;SDS011;1272;53.332;9.860;2022-11-14T02:25:01;41.97;;;28.23;;
2522;SDS011;1272;53.332;9.860;2022-11-14T02:27:27;47.40;;;25.47;;
2522;SDS011;1272;53.332;9.860;2022-11-14T02:30:01;45.33;;;27.00;;
2522;SDS011;1272;53.332;9.860;2022-11-14T02:32:35;44.00;;;27.40;;
2522;SDS011;1272;53.332;9.860;2022-11-14T02:35:01;46.90;;;27.03;;
2522;SDS011;1272;53.332;9.860;2022-11-14T02:37:26;48.30;;;26.70;;
2522;SDS011;1272;53.332;9.860;2022-11-14T02:39:52;42.53;;;26.50;;
2522;SDS011;1272;53.332;9.860;2022-11-14T02:42:18;49.63;;;29.33;;
2522;SDS011;1272;53.332;9.860;2022-11-14T02:44:43;48.80;;;27.60;;
2522;SDS011;1272;53.332;9.860;2022-11-14T02:47:09;46.00;;;26.97;;
2522;SDS011;1272;53.332;9.860;2022-11-14T02:49:35;44.90;;;26.20;;
2522;SDS011;1272;53.332;9.860;2022-11-14T02:52:00;43.80;;;26.13;;
2522;SDS011;1272;53.332;9.860;2022-11-14T02:54:26;45.20;;;28.07;;
2522;SDS011;1272;53.332;9.860;2022-11-14T02:56:52;48.70;;;27.43;;
2522;SDS011;1272;53.332;9.860;2022-11-14T02:59:17;47.73;;;27.20;;
2522;SDS011;1272;53.332;9.860;2022-11-14T03:01:43;44.87;;;25.83;;
2522;SDS011;1272;53.332;9.860;2022-11-14T03:04:09;48.03;;;28.47;;
2522;SDS011;1272;53.332;9.860;2022-11-14T03:06:35;47.53;;;26.63;;
2522;SDS011;1272;53.332;9.860;2022-11-14T03:09:00;42.03;;;25.43;;
2522;SDS011;1272;53.332;9.860;2022-11-14T03:11:26;46.60;;;29.10;;
2522;SDS011;1272;53.332;9.860;2022-11-14T03:13:52;49.77;;;28.43;;
2522;SDS011;1272;53.332;9.860;2022-11-14T03:16:18;49.03;;;28.57;;
2522;SDS011;1272;53.332;9.860;2022-11-14T03:18:44;50.33;;;27.23;;
2522;SDS011;1272;53.332;9.860;2022-11-14T03:21:13;62.33;;;29.43;;
2522;SDS011;1272;53.332;9.860;2022-11-14T03:23:40;46.27;;;27.40;;
2522;SDS011;1272;53.332;9.860;2022-11-14T03:26:07;47.03;;;27.80;;
2522;SDS011;1272;53.332;9.860;2022-11-14T03:28:34;44.20;;;25.70;;
2522;SDS011;1272;53.332;9.860;2022-11-14T03:31:00;51.93;;;30.07;;
2522;SDS011;1272;53.332;9.860;2022-11-14T03:33:26;44.43;;;26.83;;
2522;SDS011;1272;53.332;9.860;2022-11-14T03:35:52;46.97;;;29.43;;
2522;SDS011;1272;53.332;9.860;2022-11-14T03:38:18;49.57;;;29.33;;
2522;SDS011;1272;53.332;9.860;2022-11-14T03:40:47;49.10;;;27.60;;
2522;SDS011;1272;53.332;9.860;2022-11-14T03:43:16;59.40;;;30.07;;
2522;SDS011;1272;53.332;9.860;2022-11-14T03:45:43;50.67;;;29.33;;
2522;SDS011;1272;53.332;9.860;2022-11-14T03:48:09;56.80;;;31.57;;
2522;SDS011;1272;53.332;9.860;2022-11-14T03:50:35;52.47;;;31.07;;
2522;SDS011;1272;53.332;9.860;2022-11-14T03:53:01;49.00;;;29.40;;
2522;SDS011;1272;53.332;9.860;2022-11-14T03:55:26;51.43;;;27.90;;
2522;SDS011;1272;53.332;9.860;2022-11-14T03:57:52;46.40;;;26.83;;
2522;SDS011;1272;53.332;9.860;2022-11-14T04:00:18;46.20;;;28.63;;
2522;SDS011;1272;53.332;9.860;2022-11-14T04:02:44;51.73;;;28.87;;
2522;SDS011;1272;53.332;9.860;2022-11-14T04:05:09;56.10;;;28.77;;
2522;SDS011;1272;53.332;9.860;2022-11-14T04:07:35;52.87;;;30.23;;
2522;SDS011;1272;53.332;9.860;2022-11-14T04:10:01;54.97;;;29.53;;
2522;SDS011;1272;53.332;9.860;2022-11-14T04:12:27;53.67;;;30.50;;
2522;SDS011;1272;53.332;9.860;2022-11-14T04:14:53;51.53;;;29.70;;
2522;SDS011;1272;53.332;9.860;2022-11-14T04:17:18;58.13;;;31.33;;
2522;SDS011;1272;53.332;9.860;2022-11-14T04:19:44;52.80;;;29.83;;
2522;SDS011;1272;53.332;9.860;2022-11-14T04:22:10;47.70;;;28.30;;
2522;SDS011;1272;53.332;9.860;2022-11-14T04:24:36;57.20;;;29.57;;
2522;SDS011;1272;53.332;9.860;2022-11-14T04:27:02;52.57;;;28.70;;
2522;SDS011;1272;53.332;9.860;2022-11-14T04:29:27;52.60;;;29.60;;
2522;SDS011;1272;53.332;9.860;2022-11-14T04:31:53;49.33;;;27.37;;
2522;SDS011;1272;53.332;9.860;2022-11-14T04:34:19;49.87;;;29.00;;
2522;SDS011;1272;53.332;9.860;2022-11-14T04:36:44;55.27;;;28.83;;
2522;SDS011;1272;53.332;9.860;2022-11-14T04:39:10;50.63;;;30.23;;
2522;SDS011;1272;53.332;9.860;2022-11-14T04:41:35;47.20;;;30.60;;
2522;SDS011;1272;53.332;9.860;2022-11-14T04:44:01;46.83;;;29.43;;
2522;SDS011;1272;53.332;9.860;2022-11-14T04:46:27;52.27;;;29.33;;
2522;SDS011;1272;53.332;9.860;2022-11-14T04:48:53;59.03;;;30.33;;
2522;SDS011;1272;53.332;9.860;2022-11-14T04:51:18;54.37;;;31.07;;
2522;SDS011;1272;53.332;9.860;2022-11-14T04:53:44;53.80;;;32.50;;
2522;SDS011;1272;53.332;9.860;2022-11-14T04:56:10;52.60;;;31.23;;
2522;SDS011;1272;53.332;9.860;2022-11-14T04:58:35;56.97;;;29.23;;
2522;SDS011;1272;53.332;9.860;2022-11-14T05:01:08;50.00;;;29.27;;
2522;SDS011;1272;53.332;9.860;2022-11-14T05:03:35;54.13;;;29.30;;
2522;SDS011;1272;53.332;9.860;2022-11-14T05:06:01;53.10;;;30.00;;
2522;SDS011;1272;53.332;9.860;2022-11-14T05:08:28;53.03;;;30.43;;
2522;SDS011;1272;53.332;9.860;2022-11-14T05:10:53;54.17;;;31.17;;
2522;SDS011;1272;53.332;9.860;2022-11-14T05:13:19;56.60;;;31.07;;
2522;SDS011;1272;53.332;9.860;2022-11-14T05:15:45;52.10;;;30.67;;
2522;SDS011;1272;53.332;9.860;2022-11-14T05:18:11;58.03;;;32.40;;
2522;SDS011;1272;53.332;9.860;2022-11-14T05:20:36;51.80;;;28.80;;
2522;SDS011;1272;53.332;9.860;2022-11-14T05:23:02;53.40;;;30.13;;
2522;SDS011;1272;53.332;9.860;2022-11-14T05:25:28;55.57;;;29.07;;
2522;SDS011;1272;53.332;9.860;2022-11-14T05:27:56;57.30;;;31.10;;
2522;SDS011;1272;53.332;9.860;2022-11-14T05:30:22;55.27;;;31.07;;
2522;SDS011;1272;53.332;9.860;2022-11-14T05:32:49;54.77;;;30.60;;
2522;SDS011;1272;53.332;9.860;2022-11-14T05:35:16;53.33;;;31.40;;
2522;SDS011;1272;53.332;9.860;2022-11-14T05:37:41;52.23;;;31.40;;
2522;SDS011;1272;53.332;9.860;2022-11-14T05:40:07;46.60;;;29.93;;
2522;SDS011;1272;53.332;9.860;2022-11-14T05:42:36;55.63;;;32.07;;
2522;SDS011;1272;53.332;9.860;2022-11-14T05:45:02;51.73;;;29.63;;
2522;SDS011;1272;53.332;9.860;2022-11-14T05:47:28;53.47;;;30.57;;
2522;SDS011;1272;53.332;9.860;2022-11-14T05:49:54;47.80;;;28.17;;
2522;SDS011;1272;53.332;9.860;2022-11-14T05:52:19;51.07;;;30.40;;
2522;SDS011;1272;53.332;9.860;2022-11-14T05:54:45;57.07;;;30.17;;
2522;SDS011;1272;53.332;9.860;2022-11-14T05:57:11;57.50;;;29.17;;
2522;SDS011;1272;53.332;9.860;2022-11-14T05:59:39;55.57;;;30.77;;
2522;SDS011;1272;53.332;9.860;2022-11-14T06:02:05;51.17;;;29.53;;
2522;SDS011;1272;53.332;9.860;2022-11-14T06:04:30;56.10;;;29.33;;
2522;SDS011;1272;53.332;9.860;2022-11-14T06:06:56;53.80;;;29.37;;
2522;SDS011;1272;53.332;9.860;2022-11-14T06:09:21;58.83;;;32.50;;
2522;SDS011;1272;53.332;9.860;2022-11-14T06:11:47;48.60;;;29.37;;
2522;SDS011;1272;53.332;9.860;2022-11-14T06:14:13;59.63;;;32.67;;
2522;SDS011;1272;53.332;9.860;2022-11-14T06:16:39;56.20;;;33.00;;
2522;SDS011;1272;53.332;9.860;2022-11-14T06:19:04;49.70;;;28.93;;
2522;SDS011;1272;53.332;9.860;2022-11-14T06:21:31;51.50;;;31.00;;
2522;SDS011;1272;53.332;9.860;2022-11-14T06:23:56;52.33;;;29.07;;
2522;SDS011;1272;53.332;9.860;2022-11-14T06:26:29;52.07;;;30.70;;
2522;SDS011;1272;53.332;9.860;2022-11-14T06:28:56;58.47;;;29.97;;
2522;SDS011;1272;53.332;9.860;2022-11-14T06:31:25;54.20;;;30.43;;
2522;SDS011;1272;53.332;9.860;2022-11-14T06:33:51;60.20;;;32.80;;
2522;SDS011;1272;53.332;9.860;2022-11-14T06:36:17;61.43;;;33.40;;
2522;SDS011;1272;53.332;9.860;2022-11-14T06:38:43;64.27;;;35.40;;
2522;SDS011;1272;53.332;9.860;2022-11-14T06:41:19;64.27;;;33.27;;
2522;SDS011;1272;53.332;9.860;2022-11-14T06:43:46;62.53;;;33.53;;
2522;SDS011;1272;53.332;9.860;2022-11-14T06:46:15;59.43;;;32.80;;
2522;SDS011;1272;53.332;9.860;2022-11-14T06:48:42;60.73;;;33.17;;
2522;SDS011;1272;53.332;9.860;2022-11-14T06:51:09;54.83;;;32.43;;
2522;SDS011;1272;53.332;9.860;2022-11-14T06:53:36;58.17;;;30.60;;
2522;SDS011;1272;53.332;9.860;2022-11-14T06:56:03;54.23;;;30.20;;
2522;SDS011;1272;53.332;9.860;2022-11-14T06:58:34;61.37;;;33.37;;
2522;SDS011;1272;53.332;9.860;2022-11-14T07:01:05;65.13;;;32.10;;
2522;SDS011;1272;53.332;9.860;2022-11-14T07:03:39;60.47;;;32.47;;
2522;SDS011;1272;53.332;9.860;2022-11-14T07:06:05;58.23;;;30.90;;
2522;SDS011;1272;53.332;9.860;2022-11-14T07:08:32;64.70;;;32.47;;
2522;SDS011;1272;53.332;9.860;2022-11-14T07:11:05;67.33;;;31.47;;
2522;SDS011;1272;53.332;9.860;2022-11-14T07:13:46;55.47;;;29.67;;
2522;SDS011;1272;53.332;9.860;2022-11-14T07:16:15;59.60;;;32.57;;
2522;SDS011;1272;53.332;9.860;2022-11-14T07:18:42;62.83;;;33.13;;
2522;SDS011;1272;53.332;9.860;2022-11-14T07:21:10;68.30;;;35.67;;
2522;SDS011;1272;53.332;9.860;2022-11-14T07:23:37;60.47;;;32.63;;
2522;SDS011;1272;53.332;9.860;2022-11-14T07:26:04;68.67;;;31.20;;
2522;SDS011;1272;53.332;9.860;2022-11-14T07:28:32;74.60;;;34.70;;
2522;SDS011;1272;53.332;9.860;2022-11-14T07:31:01;62.80;;;33.47;;
2522;SDS011;1272;53.332;9.860;2022-11-14T07:33:31;63.43;;;34.37;;
2522;SDS011;1272;53.332;9.860;2022-11-14T07:35:57;61.33;;;31.23;;
2522;SDS011;1272;53.332;9.860;2022-11-14T07:38:23;64.60;;;32.43;;
2522;SDS011;1272;53.332;9.860;2022-11-14T07:40:55;65.37;;;31.47;;
2522;SDS011;1272;53.332;9.860;2022-11-14T07:43:27;61.13;;;32.37;;
2522;SDS011;1272;53.332;9.860;2022-11-14T07:45:57;65.43;;;31.70;;
2522;SDS011;1272;53.332;9.860;2022-11-14T07:48:45;63.87;;;32.70;;
2522;SDS011;1272;53.332;9.860;2022-11-14T07:51:15;62.97;;;31.90;;
2522;SDS011;1272;53.332;9.860;2022-11-14T07:53:42;59.27;;;31.33;;
2522;SDS011;1272;53.332;9.860;2022-11-14T07:56:11;62.63;;;31.97;;
2522;SDS011;1272;53.332;9.860;2022-11-14T07:58:41;62.77;;;31.83;;
2522;SDS011;1272;53.332;9.860;2022-11-14T08:01:08;57.57;;;30.30;;
2522;SDS011;1272;53.332;9.860;2022-11-14T08:03:38;63.77;;;32.17;;
2522;SDS011;1272;53.332;9.860;2022-11-14T08:06:07;64.00;;;34.20;;
2522;SDS011;1272;53.332;9.860;2022-11-14T08:08:35;61.53;;;31.93;;
2522;SDS011;1272;53.332;9.860;2022-11-14T08:11:01;60.27;;;32.47;;
2522;SDS011;1272;53.332;9.860;2022-11-14T08:13:27;54.90;;;30.27;;
2522;SDS011;1272;53.332;9.860;2022-11-14T08:15:53;55.90;;;30.13;;
2522;SDS011;1272;53.332;9.860;2022-11-14T08:18:19;56.40;;;31.20;;
2522;SDS011;1272;53.332;9.860;2022-11-14T08:20:45;58.07;;;30.10;;
2522;SDS011;1272;53.332;9.860;2022-11-14T08:23:11;53.43;;;30.67;;
2522;SDS011;1272;53.332;9.860;2022-11-14T08:25:38;63.00;;;31.10;;
2522;SDS011;1272;53.332;9.860;2022-11-14T08:28:04;55.00;;;29.90;;
2522;SDS011;1272;53.332;9.860;2022-11-14T08:30:30;57.20;;;29.83;;
2522;SDS011;1272;53.332;9.860;2022-11-14T08:32:56;58.80;;;32.07;;
2522;SDS011;1272;53.332;9.860;2022-11-14T08:35:24;59.67;;;33.50;;
2522;SDS011;1272;53.332;9.860;2022-11-14T08:37:51;53.53;;;28.20;;
2522;SDS011;1272;53.332;9.860;2022-11-14T08:40:16;54.80;;;30.00;;
2522;SDS011;1272;53.332;9.860;2022-11-14T08:42:42;51.67;;;28.10;;
2522;SDS011;1272;53.332;9.860;2022-11-14T08:45:11;55.73;;;30.17;;
2522;SDS011;1272;53.332;9.860;2022-11-14T08:47:45;49.43;;;30.10;;
2522;SDS011;1272;53.332;9.860;2022-11-14T08:50:15;56.23;;;31.17;;
2522;SDS011;1272;53.332;9.860;2022-11-14T08:52:41;50.87;;;27.93;;
2522;SDS011;1272;53.332;9.860;2022-11-14T08:55:06;58.90;;;32.17;;
2522;SDS011;1272;53.332;9.860;2022-11-14T08:57:32;51.97;;;29.97;;
2522;SDS011;1272;53.332;9.860;2022-11-14T08:59:58;52.87;;;29.70;;
2522;SDS011;1272;53.332;9.860;2022-11-14T09:02:23;52.77;;;28.87;;
2522;SDS011;1272;53.332;9.860;2022-11-14T09:04:49;55.53;;;30.70;;
2522;SDS011;1272;53.332;9.860;2022-11-14T09:07:15;58.63;;;29.07;;
2522;SDS011;1272;53.332;9.860;2022-11-14T09:09:40;55.47;;;30.10;;
2522;SDS011;1272;53.332;9.860;2022-11-14T09:12:06;55.40;;;30.53;;
2522;SDS011;1272;53.332;9.860;2022-11-14T09:14:32;55.40;;;29.53;;
2522;SDS011;1272;53.332;9.860;2022-11-14T09:16:57;50.17;;;30.33;;
2522;SDS011;1272;53.332;9.860;2022-11-14T09:19:23;56.13;;;28.33;;
2522;SDS011;1272;53.332;9.860;2022-11-14T09:21:49;56.23;;;31.50;;
2522;SDS011;1272;53.332;9.860;2022-11-14T09:24:17;53.27;;;28.10;;
2522;SDS011;1272;53.332;9.860;2022-11-14T09:26:43;47.83;;;30.03;;
2522;SDS011;1272;53.332;9.860;2022-11-14T09:29:09;47.07;;;28.73;;
2522;SDS011;1272;53.332;9.860;2022-11-14T09:31:34;52.67;;;29.87;;
2522;SDS011;1272;53.332;9.860;2022-11-14T09:34:00;54.33;;;30.93;;
2522;SDS011;1272;53.332;9.860;2022-11-14T09:36:26;51.70;;;28.90;;
2522;SDS011;1272;53.332;9.860;2022-11-14T09:38:52;51.30;;;29.87;;
2522;SDS011;1272;53.332;9.860;2022-11-14T09:46:20;55.97;;;29.17;;
2522;SDS011;1272;53.332;9.860;2022-11-14T09:48:50;52.10;;;28.33;;
2522;SDS011;1272;53.332;9.860;2022-11-14T09:51:51;53.60;;;28.87;;
2522;SDS011;1272;53.332;9.860;2022-11-14T09:54:19;49.73;;;28.93;;
2522;SDS011;1272;53.332;9.860;2022-11-14T09:56:48;58.30;;;31.10;;
2522;SDS011;1272;53.332;9.860;2022-11-14T09:59:15;61.17;;;29.37;;
2522;SDS011;1272;53.332;9.860;2022-11-14T10:01:59;49.17;;;29.27;;
2522;SDS011;1272;53.332;9.860;2022-11-14T10:15:53;48.70;;;28.00;;
2522;SDS011;1272;53.332;9.860;2022-11-14T10:18:28;48.43;;;29.23;;
2522;SDS011;1272;53.332;9.860;2022-11-14T10:21:05;43.73;;;27.03;;
2522;SDS011;1272;53.332;9.860;2022-11-14T10:23:55;46.07;;;27.50;;
2522;SDS011;1272;53.332;9.860;2022-11-14T10:32:42;47.17;;;24.60;;
2522;SDS011;1272;53.332;9.860;2022-11-14T10:35:22;42.87;;;26.70;;
2522;SDS011;1272;53.332;9.860;2022-11-14T10:40:44;43.23;;;25.40;;
2522;SDS011;1272;53.332;9.860;2022-11-14T10:45:52;43.27;;;28.13;;
2522;SDS011;1272;53.332;9.860;2022-11-14T10:48:39;39.80;;;24.00;;
2522;SDS011;1272;53.332;9.860;2022-11-14T10:54:04;43.23;;;27.10;;
2522;SDS011;1272;53.332;9.860;2022-11-14T10:56:34;40.93;;;25.00;;
2522;SDS011;1272;53.332;9.860;2022-11-14T10:59:09;43.87;;;26.33;;
2522;SDS011;1272;53.332;9.860;2022-11-14T11:01:39;44.73;;;25.80;;
2522;SDS011;1272;53.332;9.860;2022-11-14T11:06:55;37.60;;;24.57;;
2522;SDS011;1272;53.332;9.860;2022-11-14T11:09:30;38.10;;;24.40;;
2522;SDS011;1272;53.332;9.860;2022-11-14T11:12:18;39.27;;;24.20;;
2522;SDS011;1272;53.332;9.860;2022-11-14T11:14:50;40.83;;;25.17;;
2522;SDS011;1272;53.332;9.860;2022-11-14T11:18:23;39.60;;;25.47;;
2522;SDS011;1272;53.332;9.860;2022-11-14T11:20:46;40.33;;;24.40;;
2522;SDS011;1272;53.332;9.860;2022-11-14T11:23:56;39.50;;;23.50;;
2522;SDS011;1272;53.332;9.860;2022-11-14T11:26:26;43.00;;;25.63;;
2522;SDS011;1272;53.332;9.860;2022-11-14T11:31:25;37.90;;;25.07;;
2522;SDS011;1272;53.332;9.860;2022-11-14T11:33:51;40.27;;;25.30;;
2522;SDS011;1272;53.332;9.860;2022-11-14T11:36:18;43.30;;;26.03;;
2522;SDS011;1272;53.332;9.860;2022-11-14T11:38:47;41.23;;;26.20;;
2522;SDS011;1272;53.332;9.860;2022-11-14T11:41:22;38.13;;;24.67;;
2522;SDS011;1272;53.332;9.860;2022-11-14T11:44:04;38.23;;;23.90;;
2522;SDS011;1272;53.332;9.860;2022-11-14T11:51:55;36.40;;;23.67;;
2522;SDS011;1272;53.332;9.860;2022-11-14T11:54:26;35.33;;;22.77;;
2522;SDS011;1272;53.332;9.860;2022-11-14T11:57:14;36.60;;;24.77;;
2522;SDS011;1272;53.332;9.860;2022-11-14T11:59:44;38.87;;;23.20;;
2522;SDS011;1272;53.332;9.860;2022-11-14T12:02:22;38.53;;;24.50;;
2522;SDS011;1272;53.332;9.860;2022-11-14T12:04:50;35.30;;;23.73;;
2522;SDS011;1272;53.332;9.860;2022-11-14T12:07:18;38.23;;;23.33;;
2522;SDS011;1272;53.332;9.860;2022-11-14T12:10:13;37.90;;;24.17;;
2522;SDS011;1272;53.332;9.860;2022-11-14T12:12:53;32.20;;;22.53;;
2522;SDS011;1272;53.332;9.860;2022-11-14T12:29:55;28.97;;;21.10;;
2522;SDS011;1272;53.332;9.860;2022-11-14T12:32:32;34.33;;;20.53;;
2522;SDS011;1272;53.332;9.860;2022-11-14T12:35:05;30.43;;;20.43;;
2522;SDS011;1272;53.332;9.860;2022-11-14T12:37:48;29.93;;;20.77;;
2522;SDS011;1272;53.332;9.860;2022-11-14T12:40:20;35.63;;;21.70;;
2522;SDS011;1272;53.332;9.860;2022-11-14T12:42:51;34.37;;;22.23;;
2522;SDS011;1272;53.332;9.860;2022-11-14T12:50:51;29.43;;;20.80;;
2522;SDS011;1272;53.332;9.860;2022-11-14T13:11:45;32.90;;;21.90;;
2522;SDS011;1272;53.332;9.860;2022-11-14T13:14:30;27.83;;;19.67;;
2522;SDS011;1272;53.332;9.860;2022-11-14T13:17:30;26.30;;;19.53;;
2522;SDS011;1272;53.332;9.860;2022-11-14T13:31:19;29.03;;;19.53;;
2522;SDS011;1272;53.332;9.860;2022-11-14T13:39:00;31.10;;;21.87;;
2522;SDS011;1272;53.332;9.860;2022-11-14T13:41:47;28.17;;;20.23;;
2522;SDS011;1272;53.332;9.860;2022-11-14T13:47:24;27.70;;;20.87;;
2522;SDS011;1272;53.332;9.860;2022-11-14T13:50:04;28.00;;;19.80;;
2522;SDS011;1272;53.332;9.860;2022-11-14T13:52:33;32.80;;;21.47;;
2522;SDS011;1272;53.332;9.860;2022-11-14T13:55:04;34.87;;;20.97;;
2522;SDS011;1272;53.332;9.860;2022-11-14T13:57:41;32.10;;;22.20;;
2522;SDS011;1272;53.332;9.860;2022-11-14T14:00:49;35.23;;;21.63;;
2522;SDS011;1272;53.332;9.860;2022-11-14T14:03:38;27.23;;;19.37;;
2522;SDS011;1272;53.332;9.860;2022-11-14T14:16:57;29.90;;;20.20;;
2522;SDS011;1272;53.332;9.860;2022-11-14T14:25:34;28.40;;;21.07;;
2522;SDS011;1272;53.332;9.860;2022-11-14T14:28:31;32.63;;;21.60;;
2522;SDS011;1272;53.332;9.860;2022-11-14T14:31:17;32.87;;;21.10;;
2522;SDS011;1272;53.332;9.860;2022-11-14T14:33:45;30.17;;;22.60;;
2522;SDS011;1272;53.332;9.860;2022-11-14T14:36:25;32.20;;;21.77;;
2522;SDS011;1272;53.332;9.860;2022-11-14T14:41:44;33.97;;;22.30;;
2522;SDS011;1272;53.332;9.860;2022-11-14T14:44:16;34.03;;;22.20;;
2522;SDS011;1272;53.332;9.860;2022-11-14T14:46:51;32.33;;;21.20;;
2522;SDS011;1272;53.332;9.860;2022-11-14T14:49:25;32.80;;;22.00;;
2522;SDS011;1272;53.332;9.860;2022-11-14T14:51:59;31.73;;;19.20;;
2522;SDS011;1272;53.332;9.860;2022-11-14T14:54:26;33.63;;;21.70;;
2522;SDS011;1272;53.332;9.860;2022-11-14T14:56:56;32.47;;;20.50;;
2522;SDS011;1272;53.332;9.860;2022-11-14T14:59:28;30.17;;;20.67;;
2522;SDS011;1272;53.332;9.860;2022-11-14T15:02:00;32.10;;;21.07;;
2522;SDS011;1272;53.332;9.860;2022-11-14T15:04:26;31.03;;;21.10;;
2522;SDS011;1272;53.332;9.860;2022-11-14T15:06:56;31.23;;;20.53;;
2522;SDS011;1272;53.332;9.860;2022-11-14T15:09:26;35.07;;;22.87;;
2522;SDS011;1272;53.332;9.860;2022-11-14T15:11:56;31.23;;;21.30;;
2522;SDS011;1272;53.332;9.860;2022-11-14T15:14:30;29.10;;;20.77;;
2522;SDS011;1272;53.332;9.860;2022-11-14T15:16:59;32.67;;;20.10;;
2522;SDS011;1272;53.332;9.860;2022-11-14T15:19:27;32.73;;;21.07;;
2522;SDS011;1272;53.332;9.860;2022-11-14T15:24:43;33.00;;;20.70;;
2522;SDS011;1272;53.332;9.860;2022-11-14T15:27:54;30.90;;;21.90;;
2522;SDS011;1272;53.332;9.860;2022-11-14T15:30:26;31.13;;;20.00;;
2522;SDS011;1272;53.332;9.860;2022-11-14T15:32:57;34.37;;;22.40;;
2522;SDS011;1272;53.332;9.860;2022-11-14T15:35:29;29.47;;;21.20;;
2522;SDS011;1272;53.332;9.860;2022-11-14T15:38:16;31.40;;;21.00;;
2522;SDS011;1272;53.332;9.860;2022-11-14T15:41:07;30.13;;;21.17;;
2522;SDS011;1272;53.332;9.860;2022-11-14T15:43:36;29.13;;;19.33;;
2522;SDS011;1272;53.332;9.860;2022-11-14T15:46:37;31.20;;;20.77;;
2522;SDS011;1272;53.332;9.860;2022-11-14T15:49:08;33.60;;;20.73;;
2522;SDS011;1272;53.332;9.860;2022-11-14T15:54:22;37.90;;;23.90;;
2522;SDS011;1272;53.332;9.860;2022-11-14T15:56:53;30.07;;;19.87;;
2522;SDS011;1272;53.332;9.860;2022-11-14T15:59:21;31.33;;;20.40;;
2522;SDS011;1272;53.332;9.860;2022-11-14T16:01:51;34.13;;;22.00;;
2522;SDS011;1272;53.332;9.860;2022-11-14T16:04:25;33.03;;;21.70;;
2522;SDS011;1272;53.332;9.860;2022-11-14T16:06:56;35.00;;;22.40;;
2522;SDS011;1272;53.332;9.860;2022-11-14T16:09:22;37.00;;;22.57;;
2522;SDS011;1272;53.332;9.860;2022-11-14T16:11:48;38.60;;;22.90;;
2522;SDS011;1272;53.332;9.860;2022-11-14T16:14:15;39.43;;;23.63;;
2522;SDS011;1272;53.332;9.860;2022-11-14T16:16:41;33.70;;;22.93;;
2522;SDS011;1272;53.332;9.860;2022-11-14T16:19:07;34.40;;;22.40;;
2522;SDS011;1272;53.332;9.860;2022-11-14T16:21:39;35.73;;;24.10;;
2522;SDS011;1272;53.332;9.860;2022-11-14T16:24:05;35.70;;;22.93;;
2522;SDS011;1272;53.332;9.860;2022-11-14T16:26:35;33.73;;;23.60;;
2522;SDS011;1272;53.332;9.860;2022-11-14T16:29:02;36.83;;;23.60;;
2522;SDS011;1272;53.332;9.860;2022-11-14T16:31:28;33.07;;;20.80;;
2522;SDS011;1272;53.332;9.860;2022-11-14T16:33:53;38.03;;;23.83;;
2522;SDS011;1272;53.332;9.860;2022-11-14T16:36:42;34.27;;;22.53;;
2522;SDS011;1272;53.332;9.860;2022-11-14T16:39:09;31.87;;;20.80;;
2522;SDS011;1272;53.332;9.860;2022-11-14T16:41:37;33.70;;;21.97;;
2522;SDS011;1272;53.332;9.860;2022-11-14T16:44:07;31.97;;;21.30;;
2522;SDS011;1272;53.332;9.860;2022-11-14T16:46:40;34.77;;;21.80;;
2522;SDS011;1272;53.332;9.860;2022-11-14T16:49:06;34.80;;;24.23;;
2522;SDS011;1272;53.332;9.860;2022-11-14T16:51:35;31.03;;;22.27;;
2522;SDS011;1272;53.332;9.860;2022-11-14T16:54:09;32.90;;;22.10;;
2522;SDS011;1272;53.332;9.860;2022-11-14T16:56:36;36.63;;;24.10;;
2522;SDS011;1272;53.332;9.860;2022-11-14T16:59:02;39.43;;;25.60;;
2522;SDS011;1272;53.332;9.860;2022-11-14T17:01:28;34.90;;;23.30;;
2522;SDS011;1272;53.332;9.860;2022-11-14T17:03:55;31.20;;;21.33;;
2522;SDS011;1272;53.332;9.860;2022-11-14T17:06:24;34.60;;;23.23;;
2522;SDS011;1272;53.332;9.860;2022-11-14T17:08:52;37.53;;;23.10;;
2522;SDS011;1272;53.332;9.860;2022-11-14T17:11:19;32.23;;;22.97;;
2522;SDS011;1272;53.332;9.860;2022-11-14T17:13:48;35.83;;;23.97;;
2522;SDS011;1272;53.332;9.860;2022-11-14T17:16:14;38.13;;;22.23;;